sensor_id;sensor_type;location;lat;lon;timestamp;P1;durP1;ratioP1;P2;durP2;ratioP2
8986;SDS011;4529;51.360;12.474;2023-01-01T00:02:12;52.77;;;31.30;;
8986;SDS011;4529;51.360;12.474;2023-01-01T00:07:15;106.57;;;67.97;;
8986;SDS011;4529;51.360;12.474;2023-01-01T00:12:19;35.67;;;20.87;;
8986;SDS011;4529;51.360;12.474;2023-01-01T00:17:22;31.97;;;20.20;;
8986;SDS011;4529;51.360;12.474;2023-01-01T00:22:29;20.30;;;14.20;;
8986;SDS011;4529;51.360;12.474;2023-01-01T00:27:32;16.87;;;12.53;;
8986;SDS011;4529;51.360;12.474;2023-01-01T00:32:36;19.43;;;12.80;;
8986;SDS011;4529;51.360;12.474;2023-01-01T00:37:39;19.63;;;14.53;;
8986;SDS011;4529;51.360;12.474;2023-01-01T00:42:43;17.80;;;11.40;;
8986;SDS011;4529;51.360;12.474;2023-01-01T00:47:46;7.77;;;6.23;;
8986;SDS011;4529;51.360;12.474;2023-01-01T00:52:50;8.17;;;6.17;;
8986;SDS011;4529;51.360;12.474;2023-01-01T00:57:54;6.90;;;5.20;;
8986;SDS011;4529;51.360;12.474;2023-01-01T01:02:58;6.90;;;5.37;;
8986;SDS011;4529;51.360;12.474;2023-01-01T01:08:02;6.50;;;5.03;;
8986;SDS011;4529;51.360;12.474;2023-01-01T01:13:06;7.47;;;5.30;;
8986;SDS011;4529;51.360;12.474;2023-01-01T01:18:10;6.93;;;4.70;;
8986;SDS011;4529;51.360;12.474;2023-01-01T01:23:20;6.37;;;4.80;;
8986;SDS011;4529;51.360;12.474;2023-01-01T01:28:23;6.50;;;4.80;;
8986;SDS011;4529;51.360;12.474;2023-01-01T01:33:27;8.03;;;4.80;;
8986;SDS011;4529;51.360;12.474;2023-01-01T01:38:30;6.37;;;5.00;;
8986;SDS011;4529;51.360;12.474;2023-01-01T01:48:41;5.77;;;4.60;;
8986;SDS011;4529;51.360;12.474;2023-01-01T01:53:47;7.27;;;4.70;;
8986;SDS011;4529;51.360;12.474;2023-01-01T01:58:49;5.53;;;4.50;;
8986;SDS011;4529;51.360;12.474;2023-01-01T02:03:57;5.03;;;4.20;;
8986;SDS011;4529;51.360;12.474;2023-01-01T02:08:59;5.57;;;4.17;;
8986;SDS011;4529;51.360;12.474;2023-01-01T02:14:04;5.13;;;4.10;;
8986;SDS011;4529;51.360;12.474;2023-01-01T02:19:22;5.07;;;3.83;;
8986;SDS011;4529;51.360;12.474;2023-01-01T02:24:47;4.30;;;3.70;;
8986;SDS011;4529;51.360;12.474;2023-01-01T02:29:54;4.30;;;3.90;;
8986;SDS011;4529;51.360;12.474;2023-01-01T02:35:00;4.03;;;3.50;;
8986;SDS011;4529;51.360;12.474;2023-01-01T02:40:05;6.53;;;4.10;;
8986;SDS011;4529;51.360;12.474;2023-01-01T02:45:09;4.73;;;3.73;;
8986;SDS011;4529;51.360;12.474;2023-01-01T02:50:13;4.83;;;4.00;;
8986;SDS011;4529;51.360;12.474;2023-01-01T03:00:39;4.70;;;3.97;;
8986;SDS011;4529;51.360;12.474;2023-01-01T03:05:47;5.20;;;4.20;;
8986;SDS011;4529;51.360;12.474;2023-01-01T03:11:01;5.90;;;3.93;;
8986;SDS011;4529;51.360;12.474;2023-01-01T03:16:09;7.00;;;3.97;;
8986;SDS011;4529;51.360;12.474;2023-01-01T03:21:25;7.17;;;4.20;;
8986;SDS011;4529;51.360;12.474;2023-01-01T03:26:29;7.77;;;4.50;;
8986;SDS011;4529;51.360;12.474;2023-01-01T03:31:33;7.73;;;4.40;;
8986;SDS011;4529;51.360;12.474;2023-01-01T03:36:38;5.27;;;4.40;;
8986;SDS011;4529;51.360;12.474;2023-01-01T03:41:48;7.17;;;4.50;;
8986;SDS011;4529;51.360;12.474;2023-01-01T03:46:51;6.30;;;4.23;;
8986;SDS011;4529;51.360;12.474;2023-01-01T03:57:03;6.40;;;4.23;;
8986;SDS011;4529;51.360;12.474;2023-01-01T04:02:33;5.87;;;4.60;;
8986;SDS011;4529;51.360;12.474;2023-01-01T04:07:40;5.60;;;4.23;;
8986;SDS011;4529;51.360;12.474;2023-01-01T04:12:48;5.30;;;4.43;;
8986;SDS011;4529;51.360;12.474;2023-01-01T04:17:53;5.40;;;4.20;;
8986;SDS011;4529;51.360;12.474;2023-01-01T04:22:57;5.37;;;4.03;;
8986;SDS011;4529;51.360;12.474;2023-01-01T04:28:00;5.33;;;4.43;;
8986;SDS011;4529;51.360;12.474;2023-01-01T04:33:04;4.50;;;3.97;;
8986;SDS011;4529;51.360;12.474;2023-01-01T04:38:11;5.47;;;4.40;;
8986;SDS011;4529;51.360;12.474;2023-01-01T04:43:11;5.53;;;4.00;;
8986;SDS011;4529;51.360;12.474;2023-01-01T04:48:16;4.57;;;4.10;;
8986;SDS011;4529;51.360;12.474;2023-01-01T04:53:27;9.67;;;4.33;;
8986;SDS011;4529;51.360;12.474;2023-01-01T04:58:32;6.07;;;4.10;;
8986;SDS011;4529;51.360;12.474;2023-01-01T05:03:36;6.27;;;4.23;;
8986;SDS011;4529;51.360;12.474;2023-01-01T05:08:41;4.67;;;3.77;;
8986;SDS011;4529;51.360;12.474;2023-01-01T05:13:45;4.93;;;4.10;;
8986;SDS011;4529;51.360;12.474;2023-01-01T05:18:49;4.63;;;3.90;;
8986;SDS011;4529;51.360;12.474;2023-01-01T05:23:57;4.87;;;3.77;;
8986;SDS011;4529;51.360;12.474;2023-01-01T05:28:59;5.97;;;4.17;;
8986;SDS011;4529;51.360;12.474;2023-01-01T05:34:04;5.37;;;4.03;;
8986;SDS011;4529;51.360;12.474;2023-01-01T05:39:08;5.37;;;3.83;;
8986;SDS011;4529;51.360;12.474;2023-01-01T05:44:10;4.97;;;3.87;;
8986;SDS011;4529;51.360;12.474;2023-01-01T05:49:14;6.63;;;3.63;;
8986;SDS011;4529;51.360;12.474;2023-01-01T05:54:18;4.50;;;3.80;;
8986;SDS011;4529;51.360;12.474;2023-01-01T05:59:21;4.10;;;3.70;;
8986;SDS011;4529;51.360;12.474;2023-01-01T06:04:24;4.43;;;3.70;;
8986;SDS011;4529;51.360;12.474;2023-01-01T06:09:28;6.03;;;3.60;;
8986;SDS011;4529;51.360;12.474;2023-01-01T06:14:31;4.90;;;4.00;;
8986;SDS011;4529;51.360;12.474;2023-01-01T06:19:35;4.77;;;3.50;;
8986;SDS011;4529;51.360;12.474;2023-01-01T06:24:38;4.80;;;3.67;;
8986;SDS011;4529;51.360;12.474;2023-01-01T06:29:42;6.37;;;3.80;;
8986;SDS011;4529;51.360;12.474;2023-01-01T06:34:45;5.63;;;3.90;;
8986;SDS011;4529;51.360;12.474;2023-01-01T06:39:49;4.30;;;3.67;;
8986;SDS011;4529;51.360;12.474;2023-01-01T06:44:52;4.80;;;3.70;;
8986;SDS011;4529;51.360;12.474;2023-01-01T06:49:56;4.53;;;3.73;;
8986;SDS011;4529;51.360;12.474;2023-01-01T06:54:59;4.77;;;3.50;;
8986;SDS011;4529;51.360;12.474;2023-01-01T07:00:04;3.97;;;3.50;;
8986;SDS011;4529;51.360;12.474;2023-01-01T07:05:07;7.40;;;3.70;;
8986;SDS011;4529;51.360;12.474;2023-01-01T07:10:11;7.47;;;4.00;;
8986;SDS011;4529;51.360;12.474;2023-01-01T07:15:14;5.43;;;3.70;;
8986;SDS011;4529;51.360;12.474;2023-01-01T07:20:18;5.83;;;3.90;;
8986;SDS011;4529;51.360;12.474;2023-01-01T07:25:21;4.77;;;3.70;;
8986;SDS011;4529;51.360;12.474;2023-01-01T07:30:25;5.10;;;3.77;;
8986;SDS011;4529;51.360;12.474;2023-01-01T07:35:29;5.13;;;3.90;;
8986;SDS011;4529;51.360;12.474;2023-01-01T07:40:32;5.27;;;3.70;;
8986;SDS011;4529;51.360;12.474;2023-01-01T07:45:36;4.53;;;3.93;;
8986;SDS011;4529;51.360;12.474;2023-01-01T07:50:39;7.33;;;4.20;;
8986;SDS011;4529;51.360;12.474;2023-01-01T07:55:51;5.40;;;3.77;;
8986;SDS011;4529;51.360;12.474;2023-01-01T08:00:55;6.43;;;3.80;;
8986;SDS011;4529;51.360;12.474;2023-01-01T08:05:58;6.60;;;3.87;;
8986;SDS011;4529;51.360;12.474;2023-01-01T08:11:03;5.80;;;3.87;;
8986;SDS011;4529;51.360;12.474;2023-01-01T08:16:07;5.53;;;3.70;;
8986;SDS011;4529;51.360;12.474;2023-01-01T08:21:10;6.20;;;4.50;;
8986;SDS011;4529;51.360;12.474;2023-01-01T08:26:48;5.23;;;3.77;;
8986;SDS011;4529;51.360;12.474;2023-01-01T08:31:29;6.77;;;3.80;;
8986;SDS011;4529;51.360;12.474;2023-01-01T08:36:33;6.77;;;4.17;;
8986;SDS011;4529;51.360;12.474;2023-01-01T08:41:37;7.43;;;3.60;;
8986;SDS011;4529;51.360;12.474;2023-01-01T08:46:41;5.00;;;4.00;;
8986;SDS011;4529;51.360;12.474;2023-01-01T08:51:50;5.20;;;3.70;;
8986;SDS011;4529;51.360;12.474;2023-01-01T08:56:54;6.27;;;3.87;;
8986;SDS011;4529;51.360;12.474;2023-01-01T09:01:57;6.63;;;4.13;;
8986;SDS011;4529;51.360;12.474;2023-01-01T09:07:01;6.20;;;3.80;;
8986;SDS011;4529;51.360;12.474;2023-01-01T09:12:04;6.47;;;4.57;;
8986;SDS011;4529;51.360;12.474;2023-01-01T09:17:08;7.93;;;4.40;;
8986;SDS011;4529;51.360;12.474;2023-01-01T09:22:11;7.03;;;4.33;;
8986;SDS011;4529;51.360;12.474;2023-01-01T09:27:15;5.80;;;4.50;;
8986;SDS011;4529;51.360;12.474;2023-01-01T09:32:18;5.80;;;4.20;;
8986;SDS011;4529;51.360;12.474;2023-01-01T09:37:22;5.97;;;4.60;;
8986;SDS011;4529;51.360;12.474;2023-01-01T09:42:31;6.37;;;4.20;;
8986;SDS011;4529;51.360;12.474;2023-01-01T09:47:54;7.37;;;4.33;;
8986;SDS011;4529;51.360;12.474;2023-01-01T09:58:00;6.30;;;4.27;;
8986;SDS011;4529;51.360;12.474;2023-01-01T10:03:06;7.43;;;4.53;;
8986;SDS011;4529;51.360;12.474;2023-01-01T10:14:12;6.00;;;4.40;;
8986;SDS011;4529;51.360;12.474;2023-01-01T10:19:10;6.03;;;4.13;;
8986;SDS011;4529;51.360;12.474;2023-01-01T10:24:48;8.97;;;4.10;;
8986;SDS011;4529;51.360;12.474;2023-01-01T10:30:01;5.60;;;3.60;;
8986;SDS011;4529;51.360;12.474;2023-01-01T10:35:11;7.53;;;3.97;;
8986;SDS011;4529;51.360;12.474;2023-01-01T10:40:17;6.77;;;3.53;;
8986;SDS011;4529;51.360;12.474;2023-01-01T10:45:26;8.83;;;3.83;;
8986;SDS011;4529;51.360;12.474;2023-01-01T10:50:41;4.53;;;3.60;;
8986;SDS011;4529;51.360;12.474;2023-01-01T11:01:06;4.50;;;3.53;;
8986;SDS011;4529;51.360;12.474;2023-01-01T11:06:12;4.77;;;3.40;;
8986;SDS011;4529;51.360;12.474;2023-01-01T11:11:28;7.47;;;3.70;;
8986;SDS011;4529;51.360;12.474;2023-01-01T11:16:31;6.50;;;3.80;;
8986;SDS011;4529;51.360;12.474;2023-01-01T11:21:34;6.90;;;3.80;;
8986;SDS011;4529;51.360;12.474;2023-01-01T11:26:38;6.77;;;3.70;;
8986;SDS011;4529;51.360;12.474;2023-01-01T11:31:46;5.33;;;3.07;;
8986;SDS011;4529;51.360;12.474;2023-01-01T11:36:49;5.60;;;3.53;;
8986;SDS011;4529;51.360;12.474;2023-01-01T11:41:55;8.07;;;3.53;;
8986;SDS011;4529;51.360;12.474;2023-01-01T11:46:59;4.03;;;3.07;;
8986;SDS011;4529;51.360;12.474;2023-01-01T11:52:25;6.20;;;3.13;;
8986;SDS011;4529;51.360;12.474;2023-01-01T11:57:25;5.30;;;3.03;;
8986;SDS011;4529;51.360;12.474;2023-01-01T12:02:31;4.57;;;3.30;;
8986;SDS011;4529;51.360;12.474;2023-01-01T12:07:35;4.43;;;3.10;;
8986;SDS011;4529;51.360;12.474;2023-01-01T12:12:41;5.73;;;3.20;;
8986;SDS011;4529;51.360;12.474;2023-01-01T12:18:10;3.83;;;3.00;;
8986;SDS011;4529;51.360;12.474;2023-01-01T12:23:30;4.23;;;3.20;;
8986;SDS011;4529;51.360;12.474;2023-01-01T12:34:24;3.80;;;2.80;;
8986;SDS011;4529;51.360;12.474;2023-01-01T12:39:52;5.97;;;3.20;;
8986;SDS011;4529;51.360;12.474;2023-01-01T12:45:06;5.63;;;3.27;;
8986;SDS011;4529;51.360;12.474;2023-01-01T12:50:33;6.33;;;3.10;;
8986;SDS011;4529;51.360;12.474;2023-01-01T12:55:58;7.03;;;3.10;;
8986;SDS011;4529;51.360;12.474;2023-01-01T13:01:20;6.43;;;3.40;;
8986;SDS011;4529;51.360;12.474;2023-01-01T13:06:27;6.83;;;2.90;;
8986;SDS011;4529;51.360;12.474;2023-01-01T13:11:42;6.57;;;3.43;;
8986;SDS011;4529;51.360;12.474;2023-01-01T13:16:49;5.73;;;4.00;;
8986;SDS011;4529;51.360;12.474;2023-01-01T13:21:50;8.10;;;3.40;;
8986;SDS011;4529;51.360;12.474;2023-01-01T13:26:54;5.90;;;3.03;;
8986;SDS011;4529;51.360;12.474;2023-01-01T13:32:01;4.77;;;3.43;;
8986;SDS011;4529;51.360;12.474;2023-01-01T14:00:03;7.87;;;3.70;;
8986;SDS011;4529;51.360;12.474;2023-01-01T14:04:43;6.97;;;3.23;;
8986;SDS011;4529;51.360;12.474;2023-01-01T14:10:11;4.63;;;3.07;;
8986;SDS011;4529;51.360;12.474;2023-01-01T14:15:31;9.10;;;3.33;;
8986;SDS011;4529;51.360;12.474;2023-01-01T14:20:41;4.70;;;3.20;;
8986;SDS011;4529;51.360;12.474;2023-01-01T14:25:50;4.47;;;3.27;;
8986;SDS011;4529;51.360;12.474;2023-01-01T14:30:54;5.43;;;3.33;;
8986;SDS011;4529;51.360;12.474;2023-01-01T14:36:01;6.13;;;3.10;;
8986;SDS011;4529;51.360;12.474;2023-01-01T14:46:30;5.10;;;3.23;;
8986;SDS011;4529;51.360;12.474;2023-01-01T14:51:34;6.37;;;3.17;;
8986;SDS011;4529;51.360;12.474;2023-01-01T14:56:37;7.13;;;3.30;;
8986;SDS011;4529;51.360;12.474;2023-01-01T15:01:41;6.50;;;3.10;;
8986;SDS011;4529;51.360;12.474;2023-01-01T15:06:44;6.67;;;3.93;;
8986;SDS011;4529;51.360;12.474;2023-01-01T15:11:54;5.37;;;3.30;;
8986;SDS011;4529;51.360;12.474;2023-01-01T15:16:58;5.20;;;3.20;;
8986;SDS011;4529;51.360;12.474;2023-01-01T15:22:10;6.60;;;3.20;;
8986;SDS011;4529;51.360;12.474;2023-01-01T15:27:32;4.63;;;3.17;;
8986;SDS011;4529;51.360;12.474;2023-01-01T15:32:34;7.00;;;3.50;;
8986;SDS011;4529;51.360;12.474;2023-01-01T15:37:44;7.30;;;3.03;;
8986;SDS011;4529;51.360;12.474;2023-01-01T15:53:13;6.37;;;3.00;;
8986;SDS011;4529;51.360;12.474;2023-01-01T16:03:38;5.70;;;3.00;;
8986;SDS011;4529;51.360;12.474;2023-01-01T16:08:41;9.40;;;3.30;;
8986;SDS011;4529;51.360;12.474;2023-01-01T16:13:45;8.20;;;3.57;;
8986;SDS011;4529;51.360;12.474;2023-01-01T16:18:49;6.23;;;3.57;;
8986;SDS011;4529;51.360;12.474;2023-01-01T16:23:54;9.70;;;5.13;;
8986;SDS011;4529;51.360;12.474;2023-01-01T16:28:58;9.33;;;5.00;;
8986;SDS011;4529;51.360;12.474;2023-01-01T16:34:02;9.37;;;5.20;;
8986;SDS011;4529;51.360;12.474;2023-01-01T16:39:06;12.20;;;5.97;;
8986;SDS011;4529;51.360;12.474;2023-01-01T16:44:11;9.07;;;4.80;;
8986;SDS011;4529;51.360;12.474;2023-01-01T16:49:14;10.43;;;4.20;;
8986;SDS011;4529;51.360;12.474;2023-01-01T16:54:18;12.03;;;5.10;;
8986;SDS011;4529;51.360;12.474;2023-01-01T16:59:22;11.03;;;5.03;;
8986;SDS011;4529;51.360;12.474;2023-01-01T17:04:27;9.43;;;3.87;;
8986;SDS011;4529;51.360;12.474;2023-01-01T17:09:30;10.37;;;3.60;;
8986;SDS011;4529;51.360;12.474;2023-01-01T17:14:34;9.03;;;3.30;;
8986;SDS011;4529;51.360;12.474;2023-01-01T17:19:37;5.40;;;3.07;;
8986;SDS011;4529;51.360;12.474;2023-01-01T17:24:41;7.60;;;3.10;;
8986;SDS011;4529;51.360;12.474;2023-01-01T17:29:44;7.40;;;3.50;;
8986;SDS011;4529;51.360;12.474;2023-01-01T17:34:47;8.60;;;3.53;;
8986;SDS011;4529;51.360;12.474;2023-01-01T17:39:51;8.60;;;3.80;;
8986;SDS011;4529;51.360;12.474;2023-01-01T17:44:54;8.10;;;3.80;;
8986;SDS011;4529;51.360;12.474;2023-01-01T17:49:58;7.90;;;3.70;;
8986;SDS011;4529;51.360;12.474;2023-01-01T17:55:02;7.77;;;3.63;;
8986;SDS011;4529;51.360;12.474;2023-01-01T18:00:05;5.33;;;3.80;;
8986;SDS011;4529;51.360;12.474;2023-01-01T18:05:08;5.83;;;3.50;;
8986;SDS011;4529;51.360;12.474;2023-01-01T18:10:12;5.60;;;2.97;;
8986;SDS011;4529;51.360;12.474;2023-01-01T18:15:16;4.80;;;3.07;;
8986;SDS011;4529;51.360;12.474;2023-01-01T18:20:20;4.57;;;2.93;;
8986;SDS011;4529;51.360;12.474;2023-01-01T18:25:30;6.93;;;3.07;;
8986;SDS011;4529;51.360;12.474;2023-01-01T18:30:34;7.33;;;3.00;;
8986;SDS011;4529;51.360;12.474;2023-01-01T18:35:38;6.27;;;2.90;;
8986;SDS011;4529;51.360;12.474;2023-01-01T18:40:45;4.70;;;2.90;;
8986;SDS011;4529;51.360;12.474;2023-01-01T18:45:46;6.03;;;2.90;;
8986;SDS011;4529;51.360;12.474;2023-01-01T18:50:50;10.00;;;3.10;;
8986;SDS011;4529;51.360;12.474;2023-01-01T18:56:04;4.90;;;3.10;;
8986;SDS011;4529;51.360;12.474;2023-01-01T19:01:05;5.37;;;2.80;;
8986;SDS011;4529;51.360;12.474;2023-01-01T19:06:26;6.00;;;3.20;;
8986;SDS011;4529;51.360;12.474;2023-01-01T19:11:31;4.33;;;3.13;;
8986;SDS011;4529;51.360;12.474;2023-01-01T19:16:35;5.93;;;3.40;;
8986;SDS011;4529;51.360;12.474;2023-01-01T19:21:38;6.80;;;3.10;;
8986;SDS011;4529;51.360;12.474;2023-01-01T19:26:57;7.33;;;3.40;;
8986;SDS011;4529;51.360;12.474;2023-01-01T19:32:01;6.17;;;3.10;;
8986;SDS011;4529;51.360;12.474;2023-01-01T19:37:06;6.17;;;3.40;;
8986;SDS011;4529;51.360;12.474;2023-01-01T19:42:08;6.97;;;3.00;;
8986;SDS011;4529;51.360;12.474;2023-01-01T19:47:12;7.30;;;3.20;;
8986;SDS011;4529;51.360;12.474;2023-01-01T19:52:15;4.63;;;2.93;;
8986;SDS011;4529;51.360;12.474;2023-01-01T19:57:19;4.50;;;3.10;;
8986;SDS011;4529;51.360;12.474;2023-01-01T20:02:22;6.67;;;3.20;;
8986;SDS011;4529;51.360;12.474;2023-01-01T20:07:26;4.03;;;3.00;;
8986;SDS011;4529;51.360;12.474;2023-01-01T20:12:29;4.60;;;2.67;;
8986;SDS011;4529;51.360;12.474;2023-01-01T20:17:33;6.23;;;3.00;;
8986;SDS011;4529;51.360;12.474;2023-01-01T20:22:48;4.23;;;2.90;;
8986;SDS011;4529;51.360;12.474;2023-01-01T20:27:52;4.53;;;2.87;;
8986;SDS011;4529;51.360;12.474;2023-01-01T20:32:55;8.30;;;3.10;;
8986;SDS011;4529;51.360;12.474;2023-01-01T20:37:59;7.30;;;2.50;;
8986;SDS011;4529;51.360;12.474;2023-01-01T20:43:02;7.40;;;2.83;;
8986;SDS011;4529;51.360;12.474;2023-01-01T20:48:05;4.83;;;2.77;;
8986;SDS011;4529;51.360;12.474;2023-01-01T20:53:09;4.10;;;2.50;;
8986;SDS011;4529;51.360;12.474;2023-01-01T20:58:12;8.07;;;2.90;;
8986;SDS011;4529;51.360;12.474;2023-01-01T21:03:16;5.93;;;3.07;;
8986;SDS011;4529;51.360;12.474;2023-01-01T21:08:19;8.60;;;3.20;;
8986;SDS011;4529;51.360;12.474;2023-01-01T21:13:23;5.60;;;2.80;;
8986;SDS011;4529;51.360;12.474;2023-01-01T21:18:26;6.03;;;2.83;;
8986;SDS011;4529;51.360;12.474;2023-01-01T21:23:31;5.27;;;3.10;;
8986;SDS011;4529;51.360;12.474;2023-01-01T21:28:35;6.37;;;3.10;;
8986;SDS011;4529;51.360;12.474;2023-01-01T21:33:39;8.50;;;3.37;;
8986;SDS011;4529;51.360;12.474;2023-01-01T21:38:43;7.37;;;3.60;;
8986;SDS011;4529;51.360;12.474;2023-01-01T21:43:48;5.57;;;3.80;;
8986;SDS011;4529;51.360;12.474;2023-01-01T21:49:02;4.73;;;3.20;;
8986;SDS011;4529;51.360;12.474;2023-01-01T21:54:25;8.47;;;3.53;;
8986;SDS011;4529;51.360;12.474;2023-01-01T21:59:31;3.43;;;2.70;;
8986;SDS011;4529;51.360;12.474;2023-01-01T22:04:43;7.70;;;3.20;;
8986;SDS011;4529;51.360;12.474;2023-01-01T22:09:46;4.67;;;2.83;;
8986;SDS011;4529;51.360;12.474;2023-01-01T22:14:50;5.43;;;2.97;;
8986;SDS011;4529;51.360;12.474;2023-01-01T22:19:56;4.60;;;2.87;;
8986;SDS011;4529;51.360;12.474;2023-01-01T22:25:18;6.17;;;3.40;;
8986;SDS011;4529;51.360;12.474;2023-01-01T22:35:13;6.20;;;3.20;;
8986;SDS011;4529;51.360;12.474;2023-01-01T22:40:23;4.83;;;3.20;;
8986;SDS011;4529;51.360;12.474;2023-01-01T22:45:27;4.43;;;3.00;;
8986;SDS011;4529;51.360;12.474;2023-01-01T22:50:31;6.37;;;3.30;;
8986;SDS011;4529;51.360;12.474;2023-01-01T22:55:34;6.00;;;3.37;;
8986;SDS011;4529;51.360;12.474;2023-01-01T23:00:38;5.97;;;3.67;;
8986;SDS011;4529;51.360;12.474;2023-01-01T23:05:42;8.23;;;3.63;;
8986;SDS011;4529;51.360;12.474;2023-01-01T23:10:46;6.47;;;3.43;;
8986;SDS011;4529;51.360;12.474;2023-01-01T23:15:50;6.10;;;3.60;;
8986;SDS011;4529;51.360;12.474;2023-01-01T23:20:54;5.80;;;3.70;;
8986;SDS011;4529;51.360;12.474;2023-01-01T23:25:58;6.83;;;3.73;;
8986;SDS011;4529;51.360;12.474;2023-01-01T23:31:03;6.27;;;3.80;;
8986;SDS011;4529;51.360;12.474;2023-01-01T23:36:06;7.17;;;4.03;;
8986;SDS011;4529;51.360;12.474;2023-01-01T23:41:10;6.80;;;3.83;;
8986;SDS011;4529;51.360;12.474;2023-01-01T23:46:14;5.47;;;4.00;;
8986;SDS011;4529;51.360;12.474;2023-01-01T23:51:18;6.57;;;3.73;;
8986;SDS011;4529;51.360;12.474;2023-01-01T23:56:23;7.27;;;4.30;;
